METAR Data
IDs: Format: Raw Decoded Include TAF

Data at: 0144 UTC 20 Jul 2019

METAR for:KMXO (Monticello Rgnl, IA, US)
Text:KMXO 200135Z AUTO 17007KT 10SM CLR 30/28 A2974 RMK AO2
Temperature: 30.0°C ( 86°F)
Dewpoint: 28.0°C ( 82°F) [RH = 89%]
Pressure (altimeter):29.74 inches Hg (1007.2 mb)
Winds:from the S (170 degrees) at 8 MPH (7 knots; 3.6 m/s)
Visibility:10 or more sm (16+ km)
Ceiling:at least 12,000 feet AGL
Clouds:sky clear below 12,000 feet AGL
QC Flag:automated observation with no human augmentation